Airfield :
LOGIN :

Register | Disclaimer

   EN    FR    IT 

 










Legend :    VFR   Marginal VFR   IFR   Intensive IFR   Very Intensive IFR
Visi :
Ceiling :
>= 8 km
>= 3000ft
5 to 8 km
1000 to 3000 ft
1500m to 5 km
500 to 1000 ft
800 to 1500m
200 to 500 ft
< 800m
< 200 ft
Symbols :   Thunderstorms  Fog  Heavy snow  Heavy precipitations  Wind > 20 kt
SIGMETs :     Misc.  Thunderstorms  Icing  Turbulence  Mountain Waves  Volcanic Ashes







- Airport Elevation : 1411 ft
- IATA code : GVA


LSGG - Genève Cointrin

CURRENT METAR :
  • 180720Z 22018KT 9999 FEW015 BKN036 OVC050 04/M00 Q1019 NOSIG

EXPIRED METARs :
  • 180650Z 23013KT 9999 FEW030 BKN040 BKN060 04/M00 Q1019 NOSIG
  • 180620Z 25009KT 9999 FEW030 BKN040 BKN060 03/00 Q1019 NOSIG
  • 180550Z 26008KT 9999 FEW030 BKN040 03/00 Q1019 NOSIG
  • 180520Z 23010KT 9999 -RA FEW030 BKN040 04/M01 Q1019 NOSIG
  • 180450Z 24011KT 9999 FEW030 BKN040 03/00 Q1019 NOSIG

TAF TAF LSGG
Valid from the 18 at 06:00 until the 19 at 12:00 UTC


180525Z 1806/1912 23014KT 9999 SCT040 BKN050 TX06/1815Z TN03/1806Z TN02/1906Z
TEMPO 1806/1818 23020G30KT RA
TEMPO 1818/1906 SHRA
ATIS : +41 22 417 40 81
No reported NOTAMs for that airfield.



MET'MAP, your aeronautical weather chart ! - Copyright ORBIFLY December 2007 - Disclaimer

ORBIFLY MET'MAP TEAM :

Programming & Development : Alexandra Zaïnal
Concept & Development : Baudouin d'Aumeries
Co-Development & Prog : Marc-Olivier Méhu
Technical & hardware support : Manuel Goepfert

Contact : metmap@orbifly.com




SOURCES & CREDITS :

   NOAA